Friday, November 17, 2017, 9:24 PM GMT
Back to Local

CYYY, Mont Joli, Que.

Location: , , Canada Lat: 48.6
Local Time: 9:24 PM GMT (21:24 GMT) Lon: -68.217
Time Zone: GMT Elev: 157 ft

Show me the last for .
Show Decoded

2017-11-17 21:00 METAR CYYY 172100Z 32027G33KT 2SM -SN OVC014 M01/M03 A2966 RMK SF8 SLP049 =
2017-11-17 20:00 METAR CYYY 172000Z 32024G30KT 2SM -SN BKN013 OVC020 M00/M02 A2964 RMK SF7SC1
                 SLP042 =
2017-11-17 19:29 METAR CYYY 171929Z 32021G29KT 2SM -SN OVC012 00/M01 A2963 RMK SC8 SLP038 =
2017-11-17 19:21 METAR CYYY 171921Z 32020G29KT 1 1/2SM -SN OVC012 00/M01 A2963 RMK SC8 SLP037 =
2017-11-17 19:06 METAR CYYY 171906Z 32023G29KT 1 1/4SM -SN OVC011 00/M01 A2962 RMK SC8 SLP036 =
2017-11-17 19:02 METAR CYYY 171902Z 32022G29KT 1 1/2SM -SN OVC011 00/M01 A2962 RMK SC8 SLP035 =
2017-11-17 19:00 METAR CYYY 171900Z 32022G27KT 2SM -SN OVC012 00/M01 A2962 RMK SC8 SLP035 =
2017-11-17 18:51 METAR CYYY 171851Z 32022G29KT 2SM -SN OVC012 00/M01 A2962 RMK SC8 SLP034 =
2017-11-17 18:47 METAR CYYY 171847Z 32023G29KT 3SM -SN OVC012 00/M01 A2962 RMK SC8 SLP035 =
2017-11-17 18:00 METAR CYYY 171800Z 33017KT 5SM -SN OVC014 01/00 A2962 RMK SF8 SLP033 =
2017-11-17 17:53 METAR CYYY 171753Z 33017G23KT 3SM -SN OVC011 01/00 A2962 RMK SF8 SLP033 =
2017-11-17 17:18 METAR CYYY 171718Z 33014G20KT 2SM -SN OVC010 01/00 A2962 RMK SF8 SLP035 =
2017-11-17 17:00 METAR CYYY 171700Z 33019KT 1 1/2SM -SN OVC008 01/00 A2962 RMK SF8 SLP033 =
2017-11-17 16:55 METAR CYYY 171655Z 33016G23KT 1 1/2SM -SN OVC008 01/00 A2962 RMK SF8 SLP035 =
2017-11-17 16:00 METAR CYYY 171600Z 33017KT 2SM -SN OVC008 01/00 A2962 RMK SF8 SLP036 =
2017-11-17 15:46 METAR CYYY 171546Z 33017KT 2SM -SN OVC008 01/01 A2963 RMK SF8 SLP037 =
2017-11-17 15:06 METAR CYYY 171506Z 33016KT 2SM -SN OVC006 01/00 A2964 RMK SF8 SLP040 =
2017-11-17 15:00 METAR CYYY 171500Z 33016KT 1 1/2SM -SN OVC006 01/01 A2964 RMK SF8 SLP040 =
2017-11-17 14:00 METAR CYYY 171400Z 33013G18KT 1 1/2SM -SN OVC005 01/00 A2964 RMK SF8 SLP042 =
2017-11-17 13:00 METAR CYYY 171300Z 33014KT 1 1/2SM -SN OVC006 01/00 A2965 RMK SF8 SLP044 =
2017-11-17 12:28 METAR CYYY 171228Z 33012KT 1 1/4SM -SN OVC007 01/01 A2964 RMK SF8 SLP043 =
2017-11-17 12:00 METAR CYYY 171200Z 34013KT 1 1/2SM -SN OVC004 00/00 A2964 RMK SF8 SLP042 =
2017-11-17 11:41 METAR CYYY 171141Z 34011KT 1 1/2SM -SN OVC003 00/00 A2964 RMK SF8 SLP042 =
2017-11-17 11:04 METAR CYYY 171104Z 01008KT 2SM -SN OVC003 01/00 A2964 RMK SF8 SLP041 =
2017-11-17 11:00 METAR CYYY 171100Z 01008KT 2SM -RASN OVC003 01/00 A2964 RMK SF8 SLP040 =
2017-11-17 10:26 METAR CYYY 171026Z 03009KT 2SM -RASN OVC003 01/01 A2964 RMK SF8 SLP040 =
2017-11-17 10:00 METAR CYYY 171000Z 04009KT 2SM -RA BR OVC003 01/01 A2963 RMK SF8 SLP037 =
2017-11-17 09:00 METAR CYYY 170900Z 05008KT 2SM -RA BR OVC002 01/01 A2963 RMK SF8 SLP037 =
2017-11-17 08:00 METAR CYYY 170800Z 05008KT 2SM -RA BR OVC002 01/01 A2964 RMK SF8 SLP040 =
2017-11-17 07:53 METAR CYYY 170753Z 04006KT 2SM -RA BR OVC002 01/01 A2963 RMK SF8 SLP038 =
2017-11-17 07:39 METAR CYYY 170739Z 05009KT 2SM -RA BR SCT002 OVC012 01/01 A2964 RMK SF4SC4
                 SLP040 =
2017-11-17 07:00 METAR CYYY 170700Z 04005KT 15SM -RA OVC017 01/01 A2965 RMK SC8 SLP045 =
2017-11-17 06:00 METAR CYYY 170600Z 07006KT 15SM -RA OVC020 02/01 A2967 RMK SC8 SLP051 =
2017-11-17 05:00 METAR CYYY 170500Z VRB03KT 15SM -RA OVC022 02/01 A2968 RMK SC8 SLP054 =
2017-11-17 04:00 METAR CYYY 170400Z 13009KT 15SM -RA OVC022 02/01 A2968 RMK SC8 SLP056 =
2017-11-17 03:00 METAR CYYY 170300Z 15009KT 15SM -RA OVC022 02/01 A2971 RMK SC8 SLP064 =
2017-11-17 02:00 METAR CYYY 170200Z 15006KT 15SM -RA OVC024 02/01 A2973 RMK SC8 SLP072 =
2017-11-17 01:00 METAR CYYY 170100Z 15012G18KT 15SM -RA BKN029 OVC045 02/01 A2974 RMK SC5SC3
                 SLP076 =
2017-11-17 00:00 METAR CYYY 170000Z 14013G18KT 15SM -RA BKN033 OVC045 02/00 A2974 RMK SC5SC3
                 SLP075 =
2017-11-16 23:00 METAR CYYY 162300Z 15011KT 10SM -RA BKN030 OVC055 02/00 A2976 RMK SC5SC3 SLP083
                 =
2017-11-16 22:48 METAR CYYY 162248Z 15012KT 10SM -RA BKN026 OVC050 02/00 A2976 RMK SC5SC3 SLP082
                 =
2017-11-16 22:10 METAR CYYY 162210Z 16009KT 10SM -RASN OVC028 02/00 A2976 RMK SC8 SLP083 =
2017-11-16 22:00 METAR CYYY 162200Z 15009KT 6SM -SN OVC025 02/00 A2977 RMK SC8 SLP085 =

Support USWX by starting your Amazon purchase here.